Time;durP1;ratioP1;P1;durP2;ratioP2;P2;SDS_P1;SDS_P2;PMS_P1;PMS_P2;Temp;Humidity;BMP_temperature;BMP_pressure;BME280_temperature;BME280_humidity;BME280_pressure;Samples;Min_cycle;Max_cycle;Signal;HPM_P1;HPM_P2
2022/05/17 00:01:08;;;;;;;;;;;;;;;22.74;45.34;101197.25;5030658;28;4176;-59
2022/05/17 00:03:34;;;;;;;;;;;;;;;22.73;45.12;101198.66;5027331;28;5367;-59
2022/05/17 00:06:01;;;;;;;;;;;;;;;22.74;45.19;101197.25;5026526;28;4264;-59
2022/05/17 00:08:27;;;;;;;;;;;;;;;22.73;45.11;101196.50;5029101;28;4224;-59
2022/05/17 00:10:54;;;;;;;;;;;;;;;22.73;45.12;101198.66;5034967;28;3981;-59
2022/05/17 00:13:21;;;;;;;;;;;;;;;22.73;45.39;101196.50;5035916;28;6513;-60
2022/05/17 00:15:48;;;;;;;;;;;;;;;22.73;45.05;101195.78;5033721;28;4186;-59
2022/05/17 00:18:14;;;;;;;;;;;;;;;22.71;45.10;101190.66;5029466;28;5415;-59
2022/05/17 00:20:41;;;;;;;;;;;;;;;22.72;45.32;101188.50;5036221;28;4350;-59
2022/05/17 00:23:08;;;;;;;;;;;;;;;22.72;45.27;101191.38;5035976;28;4608;-59
2022/05/17 00:25:34;;;;;;;;;;;;;;;22.71;45.21;101187.75;5028045;28;4171;-59
2022/05/17 00:28:00;;;;;;;;;;;;;;;22.72;45.26;101188.50;5035298;28;4238;-59
2022/05/17 00:30:27;;;;;;;;;;;;;;;22.72;45.27;101185.63;5033822;28;4151;-59
2022/05/17 00:32:53;;;;;;;;;;;;;;;22.71;45.25;101189.91;5033015;28;4557;-59
2022/05/17 00:35:19;;;;;;;;;;;;;;;22.70;45.14;101180.53;5032704;28;5330;-59
2022/05/17 00:37:46;;;;;;;;;;;;;;;22.71;45.14;101187.03;5032995;28;4228;-59
2022/05/17 00:40:13;;;;;;;;;;;;;;;22.70;45.25;101179.75;5035141;28;4146;-59
2022/05/17 00:42:39;;;;;;;;;;;;;;;22.69;44.87;101179.03;5033697;28;4191;-59
2022/05/17 00:45:07;;;;;;;;;;;;;;;22.69;45.16;101187.69;5036427;28;4268;-59
2022/05/17 00:47:40;;;;;;;;;;;;;;;22.70;45.00;101185.53;5035582;28;4154;-59
2022/05/17 00:50:11;;;;;;;;;;;;;;;22.69;45.31;101178.28;5032173;28;4341;-59
2022/05/17 00:52:48;;;;;;;;;;;;;;;22.69;45.15;101184.78;5034214;28;4384;-60
2022/05/17 00:55:35;;;;;;;;;;;;;;;22.68;45.27;101182.59;5038721;28;4244;-59
2022/05/17 00:58:02;;;;;;;;;;;;;;;22.67;45.10;101186.84;5033213;28;4178;-59
2022/05/17 01:00:30;;;;;;;;;;;;;;;22.67;45.18;101187.59;5032663;28;4260;-59
2022/05/17 01:02:58;;;;;;;;;;;;;;;22.68;45.35;101191.25;5036982;28;5264;-59
2022/05/17 01:05:24;;;;;;;;;;;;;;;22.68;45.26;101199.91;5028453;28;4199;-59
2022/05/17 01:07:54;;;;;;;;;;;;;;;22.66;45.20;101191.16;5027866;28;4259;-59
2022/05/17 01:10:21;;;;;;;;;;;;;;;22.66;45.04;101197.66;5030272;28;4219;-60
2022/05/17 01:14:57;;;;;;;;;;;;;;;22.67;45.11;101201.28;5026839;28;4152;-60
2022/05/17 01:15:34;;;;;;;;;;;;;;;22.65;45.18;101196.16;5032463;28;4547;-59
2022/05/17 01:18:01;;;;;;;;;;;;;;;22.66;45.20;101196.94;5031666;28;4178;-59
2022/05/17 01:20:28;;;;;;;;;;;;;;;22.65;45.26;101206.97;5024717;28;4244;-59
2022/05/17 01:22:54;;;;;;;;;;;;;;;22.66;45.13;101211.34;5029713;28;4200;-59
2022/05/17 01:25:21;;;;;;;;;;;;;;;22.65;45.16;101212.75;5034684;28;5657;-61
2022/05/17 01:27:53;;;;;;;;;;;;;;;22.65;45.30;101218.50;5028380;28;4229;-60
2022/05/17 01:30:21;;;;;;;;;;;;;;;22.65;45.33;101230.06;5028655;28;4092;-61
2022/05/17 01:32:48;;;;;;;;;;;;;;;22.65;45.32;101230.06;5032943;28;5237;-59
2022/05/17 01:35:14;;;;;;;;;;;;;;;22.64;45.04;101240.88;5032184;28;4583;-59
2022/05/17 01:37:41;;;;;;;;;;;;;;;22.64;45.16;101240.13;5034803;28;4296;-59
2022/05/17 01:40:10;;;;;;;;;;;;;;;22.64;45.18;101235.09;5028884;28;4337;-59
2022/05/17 01:42:36;;;;;;;;;;;;;;;22.64;45.18;101243.03;5035094;28;4534;-59
2022/05/17 01:45:03;;;;;;;;;;;;;;;22.63;45.26;101239.41;5035522;28;4185;-60
2022/05/17 01:47:29;;;;;;;;;;;;;;;22.64;45.50;101248.78;5029935;28;5557;-59
2022/05/17 01:49:56;;;;;;;;;;;;;;;22.63;45.51;101250.94;5031096;28;4201;-59
2022/05/17 01:52:22;;;;;;;;;;;;;;;22.63;45.32;101250.19;5037178;28;4210;-60
2022/05/17 01:54:48;;;;;;;;;;;;;;;22.63;45.31;101250.19;5032093;28;4275;-60
2022/05/17 01:57:15;;;;;;;;;;;;;;;22.62;45.38;101249.44;5029379;28;4174;-60
2022/05/17 01:59:41;;;;;;;;;;;;;;;22.62;45.49;101251.59;5031793;28;4300;-59
2022/05/17 02:02:07;;;;;;;;;;;;;;;22.62;45.56;101245.81;5035547;28;4092;-59
2022/05/17 02:04:34;;;;;;;;;;;;;;;22.63;45.48;101255.94;5031841;28;4372;-59
2022/05/17 02:07:00;;;;;;;;;;;;;;;22.62;45.32;101248.69;5035170;28;5210;-59
2022/05/17 02:09:27;;;;;;;;;;;;;;;22.62;45.56;101254.47;5030456;28;4491;-59
2022/05/17 02:11:54;;;;;;;;;;;;;;;22.61;45.57;101247.19;5031306;28;4208;-60
2022/05/17 02:14:21;;;;;;;;;;;;;;;22.61;45.31;101253.75;5034649;28;5295;-60
2022/05/17 02:16:47;;;;;;;;;;;;;;;22.61;45.30;101253.75;5031226;28;4234;-59
2022/05/17 02:19:19;;;;;;;;;;;;;;;22.61;45.28;101252.97;5032090;28;4167;-59
2022/05/17 02:21:46;;;;;;;;;;;;;;;22.61;45.27;101250.09;5025428;28;4245;-59
2022/05/17 02:24:13;;;;;;;;;;;;;;;22.59;45.58;101257.28;5025782;28;4204;-59
2022/05/17 02:26:39;;;;;;;;;;;;;;;22.60;45.37;101258.00;5029107;28;4188;-60
2022/05/17 02:29:06;;;;;;;;;;;;;;;22.61;45.61;101261.63;5034516;28;4367;-59
2022/05/17 02:31:32;;;;;;;;;;;;;;;22.59;45.74;101260.16;5033439;28;4238;-59
2022/05/17 02:33:58;;;;;;;;;;;;;;;22.59;45.44;101260.16;5034063;28;4165;-59
2022/05/17 02:36:25;;;;;;;;;;;;;;;22.58;45.71;101261.53;5029150;28;5239;-59
2022/05/17 02:38:52;;;;;;;;;;;;;;;22.58;45.57;101267.31;5028942;28;4271;-59
2022/05/17 02:41:19;;;;;;;;;;;;;;;22.59;45.52;101265.94;5033611;28;4162;-59
2022/05/17 02:43:45;;;;;;;;;;;;;;;22.59;45.59;101263.03;5031384;28;4240;-59
2022/05/17 02:46:12;;;;;;;;;;;;;;;22.58;45.62;101266.56;5028852;28;4564;-60
2022/05/17 02:48:38;;;;;;;;;;;;;;;22.58;45.59;101275.22;5030988;28;5344;-59
2022/05/17 02:51:11;;;;;;;;;;;;;;;22.58;45.56;101284.63;5031714;28;4056;-59
2022/05/17 02:53:37;;;;;;;;;;;;;;;22.58;45.45;101284.63;5028341;28;4211;-59
2022/05/17 02:56:05;;;;;;;;;;;;;;;22.58;45.65;101290.41;5028431;28;4162;-59
2022/05/17 02:58:31;;;;;;;;;;;;;;;22.58;45.37;101296.19;5028067;28;4207;-59
2022/05/17 03:00:57;;;;;;;;;;;;;;;22.57;45.71;101299.75;5034483;28;4178;-59
2022/05/17 03:03:24;;;;;;;;;;;;;;;22.56;45.52;101304.78;5027739;28;4221;-60
2022/05/17 03:05:54;;;;;;;;;;;;;;;22.57;45.75;101305.50;5022926;28;4268;-59
2022/05/17 03:08:20;;;;;;;;;;;;;;;22.56;45.91;101316.31;5030674;28;4381;-60
2022/05/17 03:10:47;;;;;;;;;;;;;;;22.57;45.80;101329.34;5032266;28;5466;-60
2022/05/17 03:13:13;;;;;;;;;;;;;;;22.57;45.66;101329.34;5033673;28;4367;-60
2022/05/17 03:15:40;;;;;;;;;;;;;;;22.57;45.62;101325.72;5029481;28;4176;-59
2022/05/17 03:18:06;;;;;;;;;;;;;;;22.55;45.84;101340.78;5027740;28;4320;-59
2022/05/17 03:20:32;;;;;;;;;;;;;;;22.55;45.75;101334.28;5028044;28;4217;-59
2022/05/17 03:22:59;;;;;;;;;;;;;;;22.56;45.67;101345.19;5033467;28;6492;-60
2022/05/17 03:25:25;;;;;;;;;;;;;;;22.56;45.60;101347.31;5032443;28;4154;-59
2022/05/17 03:27:52;;;;;;;;;;;;;;;22.55;45.78;101354.47;5033097;28;5300;-59
2022/05/17 03:30:18;;;;;;;;;;;;;;;22.55;45.84;101361.00;5029823;28;4244;-59
2022/05/17 03:32:44;;;;;;;;;;;;;;;22.55;45.79;101355.22;5031218;28;4098;-59
2022/05/17 03:35:11;;;;;;;;;;;;;;;22.54;45.96;101361.63;5034159;28;4234;-59
2022/05/17 03:37:37;;;;;;;;;;;;;;;22.55;45.77;101374.69;5029786;28;4171;-59
2022/05/17 03:40:04;;;;;;;;;;;;;;;22.54;45.97;101382.59;5030259;28;4981;-59
2022/05/17 03:42:30;;;;;;;;;;;;;;;22.53;45.94;101375.34;5031667;28;5515;-59
2022/05/17 03:44:57;;;;;;;;;;;;;;;22.54;45.77;101396.28;5032842;28;4176;-59
2022/05/17 03:47:23;;;;;;;;;;;;;;;22.53;45.76;101389.75;5032607;28;4144;-59
2022/05/17 03:49:49;;;;;;;;;;;;;;;22.53;45.99;101392.66;5028947;28;4054;-59
2022/05/17 03:52:16;;;;;;;;;;;;;;;22.52;45.76;101379.63;5028378;28;4564;-60
2022/05/17 03:54:42;;;;;;;;;;;;;;;22.53;46.05;101383.25;5032160;28;4227;-59
2022/05/17 03:57:09;;;;;;;;;;;;;;;22.52;46.01;101385.41;5030642;28;4177;-59
2022/05/17 03:59:42;;;;;;;;;;;;;;;22.52;45.98;101391.16;5030816;28;4182;-59
2022/05/17 04:02:08;;;;;;;;;;;;;;;22.54;45.84;101385.50;5028496;28;4304;-59
2022/05/17 04:04:35;;;;;;;;;;;;;;;22.52;45.66;101385.41;5030534;28;4315;-60
2022/05/17 04:07:02;;;;;;;;;;;;;;;22.51;45.83;101395.44;5031461;28;5284;-59
2022/05/17 04:09:28;;;;;;;;;;;;;;;22.51;45.83;101389.66;5029917;28;5259;-60
2022/05/17 04:11:55;;;;;;;;;;;;;;;22.51;45.79;101389.66;5023597;28;5307;-59
2022/05/17 04:14:21;;;;;;;;;;;;;;;22.51;46.11;101388.94;5030836;28;4247;-60
2022/05/17 04:16:48;;;;;;;;;;;;;;;22.50;46.12;101382.41;5031430;28;4188;-59
2022/05/17 04:19:15;;;;;;;;;;;;;;;22.50;45.75;101373.03;5034785;28;4218;-59
2022/05/17 04:21:44;;;;;;;;;;;;;;;22.50;45.84;101376.66;5032963;28;4156;-59
2022/05/17 04:24:11;;;;;;;;;;;;;;;22.51;45.97;101374.50;5030298;28;4289;-59
2022/05/17 04:26:37;;;;;;;;;;;;;;;22.50;46.05;101373.75;5033368;28;4146;-59
2022/05/17 04:29:04;;;;;;;;;;;;;;;22.49;45.97;101380.91;5033168;28;5207;-59
2022/05/17 04:31:30;;;;;;;;;;;;;;;22.50;45.90;101370.13;5028484;28;6307;-59
2022/05/17 04:33:56;;;;;;;;;;;;;;;22.49;45.84;101363.59;5028398;28;4256;-60
2022/05/17 04:36:23;;;;;;;;;;;;;;;22.49;46.10;101372.25;5027636;28;5318;-59
2022/05/17 04:38:49;;;;;;;;;;;;;;;22.48;46.00;101370.78;5034163;28;4184;-59
2022/05/17 04:41:16;;;;;;;;;;;;;;;22.48;46.02;101367.16;5029472;28;5409;-59
2022/05/17 04:43:49;;;;;;;;;;;;;;;22.48;46.03;101361.38;5030677;28;4254;-59
2022/05/17 04:46:16;;;;;;;;;;;;;;;22.48;46.07;101367.88;5024126;28;4213;-59
2022/05/17 04:48:43;;;;;;;;;;;;;;;22.48;46.29;101367.88;5029891;28;4057;-59
2022/05/17 04:51:10;;;;;;;;;;;;;;;22.47;46.31;101366.41;5025981;28;4204;-59
2022/05/17 04:53:37;;;;;;;;;;;;;;;22.47;46.06;101369.31;5025109;28;4039;-59
2022/05/17 04:56:04;;;;;;;;;;;;;;;22.47;46.32;101377.97;5023415;28;4292;-60
2022/05/17 04:58:30;;;;;;;;;;;;;;;22.47;46.30;101372.19;5019998;28;4226;-59
2022/05/17 05:00:56;;;;;;;;;;;;;;;22.46;46.19;101364.91;5033103;28;4251;-59
2022/05/17 05:03:23;;;;;;;;;;;;;;;22.47;46.02;101368.53;5030842;28;5288;-59
2022/05/17 05:05:49;;;;;;;;;;;;;;;22.47;46.15;101359.88;5035791;28;4068;-59
2022/05/17 05:08:16;;;;;;;;;;;;;;;22.46;46.38;101350.47;5028772;28;4439;-60
2022/05/17 05:10:45;;;;;;;;;;;;;;;22.46;46.14;101353.38;5030315;28;4106;-60
2022/05/17 05:13:17;;;;;;;;;;;;;;;22.46;46.29;101335.31;5025625;28;4245;-59
2022/05/17 05:15:44;;;;;;;;;;;;;;;22.45;46.33;101340.34;5023571;28;4293;-59
2022/05/17 05:18:11;;;;;;;;;;;;;;;22.47;46.33;101348.34;5034790;28;4262;-59
2022/05/17 05:20:39;;;;;;;;;;;;;;;22.47;46.33;101354.88;5025314;28;5510;-60
2022/05/17 05:23:05;;;;;;;;;;;;;;;22.49;46.13;101357.81;5026369;28;5306;-64
2022/05/17 05:25:32;;;;;;;;;;;;;;;22.59;48.97;101357.56;5033832;28;4190;-63
2022/05/17 05:27:58;;;;;;;;;;;;;;;22.65;48.33;101352.03;5025484;28;4533;-63
2022/05/17 05:30:25;;;;;;;;;;;;;;;22.67;47.54;101360.78;5030387;28;4276;-63
2022/05/17 05:32:51;;;;;;;;;;;;;;;22.70;47.86;101376.06;5031771;28;4076;-63
2022/05/17 05:35:20;;;;;;;;;;;;;;;22.73;47.39;101375.50;5036445;28;4209;-63
2022/05/17 05:37:47;;;;;;;;;;;;;;;22.76;47.71;101376.34;5033831;28;4225;-63
2022/05/17 05:40:13;;;;;;;;;;;;;;;22.77;47.57;101380.72;5025872;28;4103;-63
2022/05/17 05:42:40;;;;;;;;;;;;;;;22.80;47.44;101379.41;5028869;28;4160;-64
2022/05/17 05:45:07;;;;;;;;;;;;;;;22.79;47.30;101377.91;5027544;28;4272;-68
2022/05/17 05:47:33;;;;;;;;;;;;;;;22.82;47.61;101381.66;5034155;28;4220;-65
2022/05/17 05:49:59;;;;;;;;;;;;;;;22.75;47.22;101383.53;5034945;28;5226;-61
2022/05/17 05:52:26;;;;;;;;;;;;;;;22.71;47.43;101384.06;5016363;28;5346;-66
2022/05/17 05:54:53;;;;;;;;;;;;;;;22.61;48.10;101380.75;5009475;28;4044;-65
2022/05/17 05:57:19;;;;;;;;;;;;;;;22.60;48.42;101373.47;5030634;28;5247;-67
2022/05/17 05:59:46;;;;;;;;;;;;;;;22.59;48.12;101387.16;5036496;28;4240;-66
2022/05/17 06:02:12;;;;;;;;;;;;;;;22.58;48.06;101385.66;5034783;28;4211;-66
2022/05/17 06:04:38;;;;;;;;;;;;;;;22.58;48.02;101388.53;5031076;28;4169;-66
2022/05/17 06:07:05;;;;;;;;;;;;;;;22.59;48.00;101384.28;5033932;28;4164;-66
2022/05/17 06:09:31;;;;;;;;;;;;;;;22.59;48.08;101387.16;5032597;28;4186;-66
2022/05/17 06:11:58;;;;;;;;;;;;;;;22.59;47.98;101395.09;5032348;28;4304;-66
2022/05/17 06:14:25;;;;;;;;;;;;;;;22.58;47.91;101400.09;5036336;28;4158;-66
2022/05/17 06:16:51;;;;;;;;;;;;;;;22.58;47.89;101394.31;5033531;28;4155;-66
2022/05/17 06:19:17;;;;;;;;;;;;;;;22.57;48.03;101387.06;5029378;28;4190;-67
2022/05/17 06:21:44;;;;;;;;;;;;;;;22.56;47.68;101405.78;5029332;28;4084;-67
2022/05/17 06:24:10;;;;;;;;;;;;;;;22.50;48.15;101417.03;5019718;28;5681;-63
2022/05/17 06:26:36;;;;;;;;;;;;;;;22.65;50.41;101409.78;5034852;28;4590;-64
2022/05/17 06:29:03;;;;;;;;;;;;;;;22.79;49.51;101409.66;5038390;28;4116;-65
2022/05/17 06:31:30;;;;;;;;;;;;;;;22.86;49.40;101410.69;5034794;28;5291;-65
2022/05/17 06:33:57;;;;;;;;;;;;;;;22.89;48.85;101410.13;5034694;28;4396;-66
2022/05/17 06:36:23;;;;;;;;;;;;;;;22.95;48.70;101413.31;5034855;28;4229;-65
2022/05/17 06:39:11;;;;;;;;;;;;;;;22.99;48.39;101430.81;5034685;28;4233;-63
2022/05/17 06:41:39;;;;;;;;;;;;;;;23.04;48.17;101431.00;5035419;28;4188;-60
2022/05/17 06:44:06;;;;;;;;;;;;;;;23.05;48.03;101435.41;5036833;28;4207;-64
2022/05/17 06:46:33;;;;;;;;;;;;;;;23.08;48.21;101448.53;5026889;28;4225;-67
2022/05/17 06:48:59;;;;;;;;;;;;;;;23.10;47.98;101457.28;5030348;28;4247;-64
2022/05/17 06:51:25;;;;;;;;;;;;;;;23.13;48.00;101453.09;5033908;28;4179;-63
2022/05/17 06:53:52;;;;;;;;;;;;;;;23.14;47.95;101457.47;5035480;28;4362;-64
2022/05/17 06:56:18;;;;;;;;;;;;;;;23.19;48.07;101459.13;5026816;28;4251;-64
2022/05/17 06:58:45;;;;;;;;;;;;;;;23.10;47.82;101469.59;5030369;28;4108;-63
2022/05/17 07:01:11;;;;;;;;;;;;;;;22.93;48.85;101467.31;5034499;28;5363;-65
2022/05/17 07:03:37;;;;;;;;;;;;;;;22.86;49.08;101477.88;5033313;28;4161;-66
2022/05/17 07:06:04;;;;;;;;;;;;;;;22.93;49.19;101473.09;5036618;28;4285;-66
2022/05/17 07:08:30;;;;;;;;;;;;;;;23.04;49.35;101483.00;5030755;28;4229;-65
2022/05/17 07:13:44;;;;;;;;;;;;;;;22.93;48.93;101482.53;5027847;28;4177;-61
2022/05/17 07:16:11;;;;;;;;;;;;;;;22.79;49.83;101479.72;5032826;28;4025;-63
2022/05/17 07:18:37;;;;;;;;;;;;;;;22.75;50.49;101488.22;5029353;28;4293;-63
2022/05/17 07:21:04;;;;;;;;;;;;;;;22.73;50.63;101484.47;5027012;28;4312;-63
2022/05/17 07:23:30;;;;;;;;;;;;;;;22.72;50.74;101491.63;5032642;28;4154;-64
2022/05/17 07:25:57;;;;;;;;;;;;;;;22.75;50.68;101493.25;5031991;28;4060;-63
2022/05/17 07:28:23;;;;;;;;;;;;;;;22.78;50.35;101486.16;5029897;28;4084;-63
2022/05/17 07:30:50;;;;;;;;;;;;;;;22.79;50.42;101496.28;5028986;28;4280;-63
2022/05/17 07:33:16;;;;;;;;;;;;;;;22.79;50.07;101494.16;5031398;28;4159;-63
2022/05/17 07:35:42;;;;;;;;;;;;;;;22.77;50.20;101494.06;5030902;28;4213;-62
2022/05/17 07:38:09;;;;;;;;;;;;;;;22.78;50.21;101497.69;5027188;28;6305;-62
2022/05/17 07:40:36;;;;;;;;;;;;;;;22.77;50.01;101496.22;5020224;28;4260;-63
2022/05/17 07:43:02;;;;;;;;;;;;;;;22.71;50.19;101502.44;5030972;28;4273;-62
2022/05/17 07:45:28;;;;;;;;;;;;;;;22.73;50.20;101501.81;5034072;28;4147;-62
2022/05/17 07:47:55;;;;;;;;;;;;;;;22.72;50.10;101506.06;5028174;28;4163;-62
2022/05/17 07:50:21;;;;;;;;;;;;;;;22.72;50.04;101506.06;5026207;28;4194;-63
2022/05/17 07:52:47;;;;;;;;;;;;;;;22.73;50.26;101501.81;5030284;28;5176;-62
2022/05/17 07:55:14;;;;;;;;;;;;;;;22.70;50.41;101500.97;5029911;28;4238;-63
2022/05/17 07:57:41;;;;;;;;;;;;;;;22.71;50.26;101507.47;5034511;28;4205;-62
2022/05/17 08:00:07;;;;;;;;;;;;;;;22.72;49.96;101501.06;5032043;28;5276;-62
2022/05/17 08:02:42;;;;;;;;;;;;;;;22.71;50.01;101498.81;5029413;28;4189;-63
2022/05/17 08:05:10;;;;;;;;;;;;;;;22.70;50.27;101508.84;5025743;28;4221;-62
2022/05/17 08:07:39;;;;;;;;;;;;;;;22.73;50.82;101501.81;5022191;28;4846;-73
2022/05/17 08:10:05;;;;;;;;;;;;;;;22.96;50.42;101501.44;5031965;28;4249;-75
2022/05/17 08:12:32;;;;;;;;;;;;;;;23.12;49.68;101515.16;5028956;28;5357;-73
2022/05/17 08:14:59;;;;;;;;;;;;;;;23.26;49.45;101520.84;5026345;28;4151;-74
2022/05/17 08:17:25;;;;;;;;;;;;;;;23.29;49.39;101531.81;5029467;28;4244;-77
2022/05/17 08:19:52;;;;;;;;;;;;;;;23.28;48.79;101536.13;5031381;28;4542;-78
2022/05/17 08:22:18;;;;;;;;;;;;;;;23.32;48.89;101536.31;5033653;28;5981;-77
2022/05/17 08:27:36;;;;;;;;;;;;;;;23.36;49.19;101530.69;5028816;28;4441;-70
2022/05/17 08:30:05;;;;;;;;;;;;;;;23.44;49.05;101535.38;5031266;28;4553;-64
2022/05/17 08:35:17;;;;;;;;;;;;;;;23.44;49.42;101539.00;5037281;28;5330;-67
2022/05/17 08:37:44;;;;;;;;;;;;;;;23.44;49.65;101544.78;5028383;28;4139;-67
2022/05/17 08:40:16;;;;;;;;;;;;;;;23.48;49.54;101547.09;5038681;28;4224;-69
2022/05/17 08:43:01;;;;;;;;;;;;;;;23.51;49.13;101545.78;5041851;28;5064;-72
2022/05/17 08:45:37;;;;;;;;;;;;;;;23.49;49.16;101548.59;5042319;28;4552;-68
2022/05/17 08:48:04;;;;;;;;;;;;;;;23.53;48.99;101549.50;5034279;28;4208;-70
2022/05/17 08:50:34;;;;;;;;;;;;;;;23.52;48.61;101548.00;5037494;28;4563;-73
2022/05/17 08:53:01;;;;;;;;;;;;;;;23.44;49.49;101552.69;5030724;28;5329;-62
2022/05/17 08:55:27;;;;;;;;;;;;;;;23.40;50.08;101550.38;5036442;28;4179;-62
2022/05/17 08:58:13;;;;;;;;;;;;;;;23.67;50.07;101549.38;5035106;28;4094;-64
2022/05/17 09:00:41;;;;;;;;;;;;;;;23.90;49.42;101547.50;5037121;28;5483;-64
2022/05/17 09:03:26;;;;;;;;;;;;;;;23.95;49.21;101554.94;5036709;28;5277;-63
2022/05/17 09:05:54;;;;;;;;;;;;;;;23.99;48.69;101561.63;5035489;28;4606;-63
2022/05/17 09:08:26;;;;;;;;;;;;;;;24.06;48.83;101556.84;5033279;28;4163;-65
2022/05/17 09:10:56;;;;;;;;;;;;;;;24.09;48.98;101558.41;5033373;28;5836;-65
2022/05/17 09:13:42;;;;;;;;;;;;;;;24.20;48.15;101560.34;5033092;28;5620;-64
2022/05/17 09:16:31;;;;;;;;;;;;;;;24.27;48.05;101563.50;5032247;28;4385;-63
2022/05/17 09:18:58;;;;;;;;;;;;;;;24.14;48.02;101560.06;5038579;28;4160;-67
2022/05/17 09:21:28;;;;;;;;;;;;;;;24.13;48.45;101561.50;5035376;28;4192;-63
2022/05/17 09:23:58;;;;;;;;;;;;;;;24.13;47.84;101558.59;5025884;28;4715;-62
2022/05/17 09:26:24;;;;;;;;;;;;;;;24.15;48.08;101561.59;5041339;28;4715;-62
2022/05/17 09:29:00;;;;;;;;;;;;;;;24.21;47.93;101561.06;5037004;28;5575;-59
2022/05/17 09:31:31;;;;;;;;;;;;;;;24.25;47.89;101561.25;5035118;28;5569;-62
2022/05/17 09:33:58;;;;;;;;;;;;;;;24.25;47.35;101559.09;5038161;28;6339;-63
2022/05/17 09:36:25;;;;;;;;;;;;;;;24.25;47.77;101564.88;5037075;28;4527;-64
2022/05/17 09:38:52;;;;;;;;;;;;;;;24.29;47.82;101560.69;5046429;28;5171;-62
2022/05/17 09:41:23;;;;;;;;;;;;;;;23.89;48.20;101572.78;5023001;28;4186;-66
2022/05/17 09:44:00;;;;;;;;;;;;;;;23.55;50.12;101569.84;5027465;28;4265;-66
2022/05/17 09:46:30;;;;;;;;;;;;;;;23.39;51.01;101572.00;5029070;28;5262;-61
2022/05/17 09:54:42;;;;;;;;;;;;;;;23.68;49.57;101576.16;5032111;28;5269;-65
2022/05/17 09:57:11;;;;;;;;;;;;;;;23.71;48.98;101572.69;5034348;28;4242;-65
2022/05/17 09:59:37;;;;;;;;;;;;;;;23.68;49.12;101576.91;5035431;28;4192;-64
2022/05/17 10:02:03;;;;;;;;;;;;;;;23.66;49.22;101573.91;5037957;28;4061;-67
2022/05/17 10:04:30;;;;;;;;;;;;;;;23.66;48.71;101570.28;5037113;28;4424;-67
2022/05/17 10:06:56;;;;;;;;;;;;;;;23.69;48.81;101584.19;5035869;28;4394;-67
2022/05/17 10:09:27;;;;;;;;;;;;;;;23.68;48.63;101579.78;5035413;28;6386;-65
2022/05/17 10:11:57;;;;;;;;;;;;;;;23.66;48.91;101578.94;5034745;28;4744;-66
2022/05/17 10:14:31;;;;;;;;;;;;;;;23.65;48.52;101578.22;5035484;28;4112;-66
2022/05/17 10:17:00;;;;;;;;;;;;;;;23.67;48.44;101586.25;5037068;28;4174;-62
2022/05/17 10:19:45;;;;;;;;;;;;;;;23.69;48.29;101581.28;5028792;28;5452;-65
2022/05/17 10:22:15;;;;;;;;;;;;;;;23.69;49.13;101578.41;5024820;28;5202;-59
2022/05/17 10:24:55;;;;;;;;;;;;;;;23.65;49.03;101575.31;5035839;28;4332;-61
2022/05/17 10:27:21;;;;;;;;;;;;;;;23.66;49.71;101579.69;5035979;28;4387;-61
2022/05/17 10:29:52;;;;;;;;;;;;;;;23.64;49.62;101576.72;5033273;28;4197;-61
2022/05/17 10:32:39;;;;;;;;;;;;;;;23.67;49.22;101568.88;5021067;28;4285;-61
2022/05/17 10:35:10;;;;;;;;;;;;;;;23.50;49.87;101581.88;5021132;28;4381;-62
2022/05/17 10:37:38;;;;;;;;;;;;;;;23.44;49.78;101576.56;5026740;28;4231;-62
2022/05/17 10:40:15;;;;;;;;;;;;;;;23.41;49.92;101581.50;5025100;28;4252;-62
2022/05/17 10:42:41;;;;;;;;;;;;;;;23.49;50.38;101583.28;5023898;28;4224;-59
2022/05/17 10:45:10;;;;;;;;;;;;;;;23.65;49.88;101578.22;5027791;28;4324;-59
2022/05/17 10:47:54;;;;;;;;;;;;;;;23.65;50.07;101578.22;5029743;28;4285;-59
2022/05/17 10:50:22;;;;;;;;;;;;;;;23.66;50.49;101585.47;5034438;28;4406;-59
2022/05/17 10:52:58;;;;;;;;;;;;;;;23.70;50.50;101579.88;5031975;28;4239;-59
2022/05/17 10:55:39;;;;;;;;;;;;;;;23.67;50.12;101586.97;5029399;28;4179;-65
2022/05/17 10:58:17;;;;;;;;;;;;;;;23.78;49.38;101591.84;5033179;28;5663;-66
2022/05/17 11:00:44;;;;;;;;;;;;;;;23.76;49.90;101588.84;5032359;28;4171;-67
2022/05/17 11:03:29;;;;;;;;;;;;;;;23.80;49.50;101588.28;5035699;28;4167;-66
2022/05/17 11:06:15;;;;;;;;;;;;;;;23.79;49.60;101595.47;5032444;28;4107;-66
2022/05/17 11:08:52;;;;;;;;;;;;;;;23.81;49.36;101601.34;5034553;28;4358;-67
2022/05/17 11:11:37;;;;;;;;;;;;;;;23.82;49.28;101602.81;5036159;28;4178;-73
2022/05/17 11:14:17;;;;;;;;;;;;;;;23.92;49.10;101611.97;5034417;28;4081;-69
2022/05/17 11:16:49;;;;;;;;;;;;;;;23.93;48.99;101598.22;5035962;28;5097;-66
2022/05/17 11:19:34;;;;;;;;;;;;;;;23.91;48.76;101598.88;5035712;28;4200;-70
2022/05/17 11:22:03;;;;;;;;;;;;;;;23.91;49.00;101593.09;5035558;28;4265;-70
2022/05/17 11:24:42;;;;;;;;;;;;;;;23.93;48.95;101592.44;5038821;28;4409;-70
2022/05/17 11:27:15;;;;;;;;;;;;;;;23.88;48.93;101593.69;5032844;28;4129;-70
2022/05/17 11:29:48;;;;;;;;;;;;;;;23.89;48.93;101592.28;5047319;28;4183;-68
2022/05/17 11:32:14;;;;;;;;;;;;;;;23.92;48.91;101593.88;5031014;28;3964;-73
2022/05/17 11:34:41;;;;;;;;;;;;;;;23.90;48.69;101599.56;5033519;28;4481;-69
2022/05/17 11:37:08;;;;;;;;;;;;;;;24.00;48.53;101599.97;5037004;28;4247;-67
2022/05/17 11:39:37;;;;;;;;;;;;;;;24.25;48.06;101593.81;5032096;28;4216;-67
2022/05/17 11:42:07;;;;;;;;;;;;;;;24.34;48.12;101597.81;5029201;28;4254;-67
2022/05/17 11:44:40;;;;;;;;;;;;;;;24.35;47.83;101598.53;5030908;28;4207;-67
2022/05/17 11:47:25;;;;;;;;;;;;;;;24.37;47.90;101602.28;5031793;28;4630;-67
2022/05/17 11:49:52;;;;;;;;;;;;;;;24.42;47.77;101603.94;5035777;28;4192;-67
2022/05/17 11:52:24;;;;;;;;;;;;;;;24.56;47.91;101592.22;5034106;28;4195;-69
2022/05/17 11:54:51;;;;;;;;;;;;;;;24.72;47.51;101597.19;5034772;28;4146;-68
2022/05/17 11:57:18;;;;;;;;;;;;;;;24.79;47.49;101593.13;5034134;28;4313;-69
2022/05/17 11:59:53;;;;;;;;;;;;;;;24.79;47.22;101601.81;5031613;28;4382;-68
2022/05/17 12:02:20;;;;;;;;;;;;;;;24.82;47.30;101597.59;5031072;28;4241;-68
2022/05/17 12:04:46;;;;;;;;;;;;;;;24.78;47.47;101598.16;5027470;28;4080;-68
2022/05/17 12:07:18;;;;;;;;;;;;;;;24.88;47.08;101595.69;5034341;28;4095;-69
2022/05/17 12:09:49;;;;;;;;;;;;;;;24.84;46.84;101592.63;5032360;28;4179;-69
2022/05/17 12:12:34;;;;;;;;;;;;;;;24.87;47.04;101596.34;5036516;28;3971;-70
2022/05/17 12:15:09;;;;;;;;;;;;;;;24.55;47.11;101599.41;5035402;28;5145;-66
2022/05/17 12:17:45;;;;;;;;;;;;;;;24.39;47.57;101592.94;5033109;28;4163;-64
2022/05/17 12:20:16;;;;;;;;;;;;;;;24.33;47.79;101598.50;5038736;28;4136;-64
2022/05/17 12:22:43;;;;;;;;;;;;;;;24.26;48.09;101597.47;5038748;28;5469;-66
2022/05/17 12:25:21;;;;;;;;;;;;;;;24.23;48.52;101601.69;5036886;28;4354;-65
2022/05/17 12:27:47;;;;;;;;;;;;;;;24.22;48.61;101598.03;5036559;28;4350;-65
2022/05/17 12:33:02;;;;;;;;;;;;;;;24.17;47.89;101596.41;5036613;28;4034;-66
2022/05/17 12:35:30;;;;;;;;;;;;;;;24.18;47.88;101583.41;5037001;28;4502;-65
2022/05/17 12:37:57;;;;;;;;;;;;;;;24.12;47.67;101588.19;5038527;28;5226;-65
2022/05/17 12:43:11;;;;;;;;;;;;;;;24.10;48.05;101591.75;5035529;28;4309;-66
2022/05/17 12:45:43;;;;;;;;;;;;;;;24.14;48.29;101603.47;5031855;28;4586;-67
2022/05/17 12:48:14;;;;;;;;;;;;;;;24.23;47.84;101596.66;5018638;28;4294;-65
2022/05/17 12:50:53;;;;;;;;;;;;;;;24.21;48.13;101602.34;5029122;28;4185;-62
2022/05/17 12:53:23;;;;;;;;;;;;;;;24.14;48.00;101597.69;5020394;28;4175;-61
2022/05/17 12:56:04;;;;;;;;;;;;;;;23.99;48.13;101598.50;5021335;28;4130;-65
2022/05/17 12:58:32;;;;;;;;;;;;;;;23.91;48.14;101598.88;5024721;28;4263;-66
2022/05/17 13:00:58;;;;;;;;;;;;;;;23.88;48.29;101587.91;5029409;28;4192;-67
2022/05/17 13:03:26;;;;;;;;;;;;;;;23.73;48.61;101598.81;5028959;28;4198;-69
2022/05/17 13:05:53;;;;;;;;;;;;;;;23.64;48.90;101602.75;5024603;28;4302;-69
2022/05/17 13:08:31;;;;;;;;;;;;;;;23.54;49.42;101603.03;5029576;28;4248;-68
2022/05/17 13:10:58;;;;;;;;;;;;;;;23.48;49.72;101596.22;5034764;28;4253;-68
2022/05/17 13:13:24;;;;;;;;;;;;;;;23.47;49.42;101597.63;5035320;28;4179;-69
2022/05/17 13:16:09;;;;;;;;;;;;;;;23.46;49.40;101601.94;5031345;28;4191;-68